sensor_id;sensor_type;location;lat;lon;timestamp;temperature;humidity
74416;SHT31;62850;42.428;25.618;2023-07-31T00:00:06;24.24;46.24
74416;SHT31;62850;42.428;25.618;2023-07-31T00:02:31;24.24;46.24
74416;SHT31;62850;42.428;25.618;2023-07-31T00:04:57;24.28;46.02
74416;SHT31;62850;42.428;25.618;2023-07-31T00:07:22;24.34;45.92
74416;SHT31;62850;42.428;25.618;2023-07-31T00:09:48;24.41;45.80
74416;SHT31;62850;42.428;25.618;2023-07-31T00:12:13;24.35;45.62
74416;SHT31;62850;42.428;25.618;2023-07-31T00:14:39;24.42;45.51
74416;SHT31;62850;42.428;25.618;2023-07-31T00:17:04;24.52;45.03
74416;SHT31;62850;42.428;25.618;2023-07-31T00:19:30;24.56;45.08
74416;SHT31;62850;42.428;25.618;2023-07-31T00:21:55;24.71;44.92
74416;SHT31;62850;42.428;25.618;2023-07-31T00:24:21;24.80;45.12
74416;SHT31;62850;42.428;25.618;2023-07-31T00:26:46;24.89;45.33
74416;SHT31;62850;42.428;25.618;2023-07-31T00:29:12;24.89;45.52
74416;SHT31;62850;42.428;25.618;2023-07-31T00:31:37;24.79;45.64
74416;SHT31;62850;42.428;25.618;2023-07-31T00:34:03;24.73;45.58
74416;SHT31;62850;42.428;25.618;2023-07-31T00:36:28;24.75;45.61
74416;SHT31;62850;42.428;25.618;2023-07-31T00:38:54;24.69;45.56
74416;SHT31;62850;42.428;25.618;2023-07-31T00:41:19;24.51;45.67
74416;SHT31;62850;42.428;25.618;2023-07-31T00:43:44;24.62;45.49
74416;SHT31;62850;42.428;25.618;2023-07-31T00:46:10;24.72;45.41
74416;SHT31;62850;42.428;25.618;2023-07-31T00:48:37;24.76;45.79
74416;SHT31;62850;42.428;25.618;2023-07-31T00:51:04;24.73;45.71
74416;SHT31;62850;42.428;25.618;2023-07-31T00:53:29;24.79;45.81
74416;SHT31;62850;42.428;25.618;2023-07-31T00:55:56;24.75;45.78
74416;SHT31;62850;42.428;25.618;2023-07-31T00:58:21;24.73;45.94
74416;SHT31;62850;42.428;25.618;2023-07-31T01:00:47;24.83;45.67
74416;SHT31;62850;42.428;25.618;2023-07-31T01:03:12;24.85;46.09
74416;SHT31;62850;42.428;25.618;2023-07-31T01:08:20;24.71;46.11
74416;SHT31;62850;42.428;25.618;2023-07-31T01:10:54;24.73;46.41
74416;SHT31;62850;42.428;25.618;2023-07-31T01:13:21;24.73;46.62
74416;SHT31;62850;42.428;25.618;2023-07-31T01:15:47;24.75;47.03
74416;SHT31;62850;42.428;25.618;2023-07-31T01:18:12;24.71;47.29
74416;SHT31;62850;42.428;25.618;2023-07-31T01:20:41;24.75;47.05
74416;SHT31;62850;42.428;25.618;2023-07-31T01:28:46;24.73;47.50
74416;SHT31;62850;42.428;25.618;2023-07-31T01:31:16;24.65;47.59
74416;SHT31;62850;42.428;25.618;2023-07-31T01:33:43;24.54;47.79
74416;SHT31;62850;42.428;25.618;2023-07-31T01:36:10;24.48;47.91
74416;SHT31;62850;42.428;25.618;2023-07-31T01:38:36;24.52;48.04
74416;SHT31;62850;42.428;25.618;2023-07-31T01:41:02;24.48;48.23
74416;SHT31;62850;42.428;25.618;2023-07-31T01:43:27;24.36;48.59
74416;SHT31;62850;42.428;25.618;2023-07-31T01:45:53;24.36;48.66
74416;SHT31;62850;42.428;25.618;2023-07-31T01:48:18;24.34;48.56
74416;SHT31;62850;42.428;25.618;2023-07-31T01:50:44;24.21;48.97
74416;SHT31;62850;42.428;25.618;2023-07-31T01:53:09;24.21;49.14
74416;SHT31;62850;42.428;25.618;2023-07-31T01:55:37;24.10;49.78
74416;SHT31;62850;42.428;25.618;2023-07-31T01:58:02;24.06;50.23
74416;SHT31;62850;42.428;25.618;2023-07-31T02:00:28;23.97;50.56
74416;SHT31;62850;42.428;25.618;2023-07-31T02:02:55;23.93;50.65
74416;SHT31;62850;42.428;25.618;2023-07-31T02:05:21;23.84;51.04
74416;SHT31;62850;42.428;25.618;2023-07-31T02:07:46;23.81;50.99
74416;SHT31;62850;42.428;25.618;2023-07-31T02:10:12;23.81;51.07
74416;SHT31;62850;42.428;25.618;2023-07-31T02:12:37;23.80;50.67
74416;SHT31;62850;42.428;25.618;2023-07-31T02:15:03;23.73;50.95
74416;SHT31;62850;42.428;25.618;2023-07-31T02:17:29;23.76;50.86
74416;SHT31;62850;42.428;25.618;2023-07-31T02:19:55;23.69;51.28
74416;SHT31;62850;42.428;25.618;2023-07-31T02:22:20;23.62;51.24
74416;SHT31;62850;42.428;25.618;2023-07-31T02:24:46;23.69;51.48
74416;SHT31;62850;42.428;25.618;2023-07-31T02:27:11;23.66;52.02
74416;SHT31;62850;42.428;25.618;2023-07-31T02:29:37;23.63;52.34
74416;SHT31;62850;42.428;25.618;2023-07-31T02:32:03;23.60;52.79
74416;SHT31;62850;42.428;25.618;2023-07-31T02:34:28;23.50;53.17
74416;SHT31;62850;42.428;25.618;2023-07-31T02:36:53;23.49;53.20
74416;SHT31;62850;42.428;25.618;2023-07-31T02:39:19;23.46;53.23
74416;SHT31;62850;42.428;25.618;2023-07-31T02:41:44;23.41;53.15
74416;SHT31;62850;42.428;25.618;2023-07-31T02:44:10;23.45;53.27
74416;SHT31;62850;42.428;25.618;2023-07-31T02:46:38;23.39;53.43
74416;SHT31;62850;42.428;25.618;2023-07-31T02:49:04;23.38;53.48
74416;SHT31;62850;42.428;25.618;2023-07-31T02:51:29;23.36;53.68
74416;SHT31;62850;42.428;25.618;2023-07-31T02:53:58;23.35;53.62
74416;SHT31;62850;42.428;25.618;2023-07-31T02:56:23;23.32;53.52
74416;SHT31;62850;42.428;25.618;2023-07-31T02:58:49;23.20;53.21
74416;SHT31;62850;42.428;25.618;2023-07-31T03:01:14;23.23;53.25
74416;SHT31;62850;42.428;25.618;2023-07-31T03:03:41;23.28;52.67
74416;SHT31;62850;42.428;25.618;2023-07-31T03:06:07;23.29;53.06
74416;SHT31;62850;42.428;25.618;2023-07-31T03:08:32;23.32;53.06
74416;SHT31;62850;42.428;25.618;2023-07-31T03:10:58;23.32;53.14
74416;SHT31;62850;42.428;25.618;2023-07-31T03:13:23;23.33;52.92
74416;SHT31;62850;42.428;25.618;2023-07-31T03:15:49;23.33;53.19
74416;SHT31;62850;42.428;25.618;2023-07-31T03:18:15;23.28;53.86
74416;SHT31;62850;42.428;25.618;2023-07-31T03:20:43;23.29;54.42
74416;SHT31;62850;42.428;25.618;2023-07-31T03:23:09;23.29;55.16
74416;SHT31;62850;42.428;25.618;2023-07-31T03:25:35;23.28;55.62
74416;SHT31;62850;42.428;25.618;2023-07-31T03:28:00;23.30;55.81
74416;SHT31;62850;42.428;25.618;2023-07-31T03:30:26;23.32;55.66
74416;SHT31;62850;42.428;25.618;2023-07-31T03:32:52;23.33;55.79
74416;SHT31;62850;42.428;25.618;2023-07-31T03:35:17;23.30;55.99
74416;SHT31;62850;42.428;25.618;2023-07-31T03:37:43;23.32;55.55
74416;SHT31;62850;42.428;25.618;2023-07-31T03:40:09;23.28;55.54
74416;SHT31;62850;42.428;25.618;2023-07-31T03:42:34;23.32;55.62
74416;SHT31;62850;42.428;25.618;2023-07-31T03:45:00;23.30;54.85
74416;SHT31;62850;42.428;25.618;2023-07-31T03:47:26;23.30;54.31
74416;SHT31;62850;42.428;25.618;2023-07-31T03:49:51;23.33;53.72
74416;SHT31;62850;42.428;25.618;2023-07-31T03:52:17;23.35;53.22
74416;SHT31;62850;42.428;25.618;2023-07-31T03:54:42;23.30;53.05
74416;SHT31;62850;42.428;25.618;2023-07-31T03:57:10;23.39;53.10
74416;SHT31;62850;42.428;25.618;2023-07-31T03:59:36;23.43;53.18
74416;SHT31;62850;42.428;25.618;2023-07-31T04:02:03;23.47;53.20
74416;SHT31;62850;42.428;25.618;2023-07-31T04:04:29;23.47;53.68
74416;SHT31;62850;42.428;25.618;2023-07-31T04:06:54;23.47;54.64
74416;SHT31;62850;42.428;25.618;2023-07-31T04:09:20;23.43;54.87
74416;SHT31;62850;42.428;25.618;2023-07-31T04:11:45;23.33;54.80
74416;SHT31;62850;42.428;25.618;2023-07-31T04:14:11;23.41;54.55
74416;SHT31;62850;42.428;25.618;2023-07-31T04:16:36;23.42;54.69
74416;SHT31;62850;42.428;25.618;2023-07-31T04:19:02;23.20;54.89
74416;SHT31;62850;42.428;25.618;2023-07-31T04:21:28;23.07;55.22
74416;SHT31;62850;42.428;25.618;2023-07-31T04:23:54;22.99;55.46
74416;SHT31;62850;42.428;25.618;2023-07-31T04:26:21;23.15;55.18
74416;SHT31;62850;42.428;25.618;2023-07-31T04:28:47;23.11;55.28
74416;SHT31;62850;42.428;25.618;2023-07-31T04:31:12;23.22;55.16
74416;SHT31;62850;42.428;25.618;2023-07-31T04:33:38;23.26;55.36
74416;SHT31;62850;42.428;25.618;2023-07-31T04:36:04;23.38;54.83
74416;SHT31;62850;42.428;25.618;2023-07-31T04:38:30;23.46;55.29
74416;SHT31;62850;42.428;25.618;2023-07-31T04:40:55;23.60;55.09
74416;SHT31;62850;42.428;25.618;2023-07-31T04:43:21;23.63;54.85
74416;SHT31;62850;42.428;25.618;2023-07-31T04:45:46;23.67;55.07
74416;SHT31;62850;42.428;25.618;2023-07-31T04:48:13;23.69;54.71
74416;SHT31;62850;42.428;25.618;2023-07-31T04:50:38;23.78;54.31
74416;SHT31;62850;42.428;25.618;2023-07-31T04:53:05;23.81;54.50
74416;SHT31;62850;42.428;25.618;2023-07-31T04:55:30;23.84;54.73
74416;SHT31;62850;42.428;25.618;2023-07-31T04:57:58;23.87;54.48
74416;SHT31;62850;42.428;25.618;2023-07-31T05:00:24;23.84;54.49
74416;SHT31;62850;42.428;25.618;2023-07-31T05:02:49;23.83;54.46
74416;SHT31;62850;42.428;25.618;2023-07-31T05:05:15;23.83;54.52
74416;SHT31;62850;42.428;25.618;2023-07-31T05:07:40;23.83;54.71
74416;SHT31;62850;42.428;25.618;2023-07-31T05:10:06;23.86;54.60
74416;SHT31;62850;42.428;25.618;2023-07-31T05:12:31;23.90;54.68
74416;SHT31;62850;42.428;25.618;2023-07-31T05:14:57;23.88;54.42
74416;SHT31;62850;42.428;25.618;2023-07-31T05:17:22;23.97;54.19
74416;SHT31;62850;42.428;25.618;2023-07-31T05:19:48;24.03;53.77
74416;SHT31;62850;42.428;25.618;2023-07-31T05:22:13;24.01;53.02
74416;SHT31;62850;42.428;25.618;2023-07-31T05:24:39;24.07;53.28
74416;SHT31;62850;42.428;25.618;2023-07-31T05:27:04;24.08;53.06
74416;SHT31;62850;42.428;25.618;2023-07-31T05:29:30;24.04;53.04
74416;SHT31;62850;42.428;25.618;2023-07-31T05:31:55;24.03;53.28
74416;SHT31;62850;42.428;25.618;2023-07-31T05:34:21;24.03;53.78
74416;SHT31;62850;42.428;25.618;2023-07-31T05:36:46;23.98;54.03
74416;SHT31;62850;42.428;25.618;2023-07-31T05:39:12;23.98;55.46
74416;SHT31;62850;42.428;25.618;2023-07-31T05:41:37;23.90;59.42
74416;SHT31;62850;42.428;25.618;2023-07-31T05:44:03;23.77;61.55
74416;SHT31;62850;42.428;25.618;2023-07-31T05:46:28;23.66;61.91
74416;SHT31;62850;42.428;25.618;2023-07-31T05:48:54;23.52;65.84
74416;SHT31;62850;42.428;25.618;2023-07-31T05:51:19;23.33;65.18
74416;SHT31;62850;42.428;25.618;2023-07-31T05:53:45;23.28;68.43
74416;SHT31;62850;42.428;25.618;2023-07-31T05:56:10;22.95;70.30
74416;SHT31;62850;42.428;25.618;2023-07-31T05:58:36;22.78;70.55
74416;SHT31;62850;42.428;25.618;2023-07-31T06:01:01;22.72;71.10
74416;SHT31;62850;42.428;25.618;2023-07-31T06:03:27;22.56;70.80
74416;SHT31;62850;42.428;25.618;2023-07-31T06:05:52;22.33;70.70
74416;SHT31;62850;42.428;25.618;2023-07-31T06:08:18;22.26;72.14
74416;SHT31;62850;42.428;25.618;2023-07-31T06:10:43;22.23;72.60
74416;SHT31;62850;42.428;25.618;2023-07-31T06:13:09;22.30;73.57
74416;SHT31;62850;42.428;25.618;2023-07-31T06:15:34;22.10;75.20
74416;SHT31;62850;42.428;25.618;2023-07-31T06:18:00;21.86;74.49
74416;SHT31;62850;42.428;25.618;2023-07-31T06:20:27;21.86;74.38
74416;SHT31;62850;42.428;25.618;2023-07-31T06:22:53;21.93;76.57
74416;SHT31;62850;42.428;25.618;2023-07-31T06:25:19;21.75;75.66
74416;SHT31;62850;42.428;25.618;2023-07-31T06:27:44;21.62;77.25
74416;SHT31;62850;42.428;25.618;2023-07-31T06:30:10;21.57;76.94
74416;SHT31;62850;42.428;25.618;2023-07-31T06:32:36;21.58;78.32
74416;SHT31;62850;42.428;25.618;2023-07-31T06:35:02;21.54;79.03
74416;SHT31;62850;42.428;25.618;2023-07-31T06:37:27;21.55;78.99
74416;SHT31;62850;42.428;25.618;2023-07-31T06:39:53;21.48;79.33
74416;SHT31;62850;42.428;25.618;2023-07-31T06:42:18;21.48;79.32
74416;SHT31;62850;42.428;25.618;2023-07-31T06:44:44;21.48;79.67
74416;SHT31;62850;42.428;25.618;2023-07-31T06:47:09;21.48;80.58
74416;SHT31;62850;42.428;25.618;2023-07-31T06:49:35;21.45;80.16
74416;SHT31;62850;42.428;25.618;2023-07-31T06:52:00;21.48;80.40
74416;SHT31;62850;42.428;25.618;2023-07-31T06:54:25;21.45;80.07
74416;SHT31;62850;42.428;25.618;2023-07-31T06:56:51;21.44;80.48
74416;SHT31;62850;42.428;25.618;2023-07-31T06:59:16;21.54;80.46
74416;SHT31;62850;42.428;25.618;2023-07-31T07:01:42;21.58;80.24
74416;SHT31;62850;42.428;25.618;2023-07-31T07:04:07;21.62;80.30
74416;SHT31;62850;42.428;25.618;2023-07-31T07:06:33;21.66;80.98
74416;SHT31;62850;42.428;25.618;2023-07-31T07:08:58;21.61;78.61
74416;SHT31;62850;42.428;25.618;2023-07-31T07:11:24;21.54;78.16
74416;SHT31;62850;42.428;25.618;2023-07-31T07:13:49;21.57;77.65
74416;SHT31;62850;42.428;25.618;2023-07-31T07:16:15;21.58;77.32
74416;SHT31;62850;42.428;25.618;2023-07-31T07:18:40;21.71;77.80
74416;SHT31;62850;42.428;25.618;2023-07-31T07:21:06;21.88;77.97
74416;SHT31;62850;42.428;25.618;2023-07-31T07:23:31;22.05;78.79
74416;SHT31;62850;42.428;25.618;2023-07-31T07:25:57;22.14;78.43
74416;SHT31;62850;42.428;25.618;2023-07-31T07:28:22;22.21;79.52
74416;SHT31;62850;42.428;25.618;2023-07-31T07:30:54;22.30;79.40
74416;SHT31;62850;42.428;25.618;2023-07-31T07:33:20;22.51;79.42
74416;SHT31;62850;42.428;25.618;2023-07-31T07:35:45;22.67;79.80
74416;SHT31;62850;42.428;25.618;2023-07-31T07:38:11;22.84;79.71
74416;SHT31;62850;42.428;25.618;2023-07-31T07:40:40;23.01;79.15
74416;SHT31;62850;42.428;25.618;2023-07-31T07:43:06;23.18;78.50
74416;SHT31;62850;42.428;25.618;2023-07-31T07:45:31;23.33;77.92
74416;SHT31;62850;42.428;25.618;2023-07-31T07:47:57;23.59;77.54
74416;SHT31;62850;42.428;25.618;2023-07-31T07:50:23;23.76;77.16
74416;SHT31;62850;42.428;25.618;2023-07-31T07:52:48;23.93;76.87
74416;SHT31;62850;42.428;25.618;2023-07-31T07:55:14;24.06;76.42
74416;SHT31;62850;42.428;25.618;2023-07-31T07:57:39;24.10;75.15
74416;SHT31;62850;42.428;25.618;2023-07-31T08:00:07;24.17;75.26
74416;SHT31;62850;42.428;25.618;2023-07-31T08:02:32;24.32;75.28
74416;SHT31;62850;42.428;25.618;2023-07-31T08:04:58;24.34;75.38
74416;SHT31;62850;42.428;25.618;2023-07-31T08:07:23;24.59;74.12
74416;SHT31;62850;42.428;25.618;2023-07-31T08:09:49;24.79;73.30
74416;SHT31;62850;42.428;25.618;2023-07-31T08:12:14;24.82;73.08
74416;SHT31;62850;42.428;25.618;2023-07-31T08:14:39;24.92;73.30
74416;SHT31;62850;42.428;25.618;2023-07-31T08:17:05;25.17;72.92
74416;SHT31;62850;42.428;25.618;2023-07-31T08:19:30;25.43;72.70
74416;SHT31;62850;42.428;25.618;2023-07-31T08:21:56;25.55;71.26
74416;SHT31;62850;42.428;25.618;2023-07-31T08:24:22;25.54;71.71
74416;SHT31;62850;42.428;25.618;2023-07-31T08:26:47;25.55;71.17
74416;SHT31;62850;42.428;25.618;2023-07-31T08:29:13;25.61;71.19
74416;SHT31;62850;42.428;25.618;2023-07-31T08:31:39;25.54;70.97
74416;SHT31;62850;42.428;25.618;2023-07-31T08:34:04;25.61;70.95
74416;SHT31;62850;42.428;25.618;2023-07-31T08:36:30;25.74;70.44
74416;SHT31;62850;42.428;25.618;2023-07-31T08:38:55;25.77;71.24
74416;SHT31;62850;42.428;25.618;2023-07-31T08:41:20;25.77;70.68
74416;SHT31;62850;42.428;25.618;2023-07-31T08:43:46;25.77;70.31
74416;SHT31;62850;42.428;25.618;2023-07-31T08:46:12;25.81;69.69
74416;SHT31;62850;42.428;25.618;2023-07-31T08:48:41;25.80;69.64
74416;SHT31;62850;42.428;25.618;2023-07-31T08:51:07;25.81;68.53
74416;SHT31;62850;42.428;25.618;2023-07-31T08:53:32;25.81;68.80
74416;SHT31;62850;42.428;25.618;2023-07-31T08:55:59;25.77;68.17
74416;SHT31;62850;42.428;25.618;2023-07-31T08:58:25;25.80;68.85
74416;SHT31;62850;42.428;25.618;2023-07-31T09:00:53;25.85;68.64
74416;SHT31;62850;42.428;25.618;2023-07-31T09:03:22;25.99;67.81
74416;SHT31;62850;42.428;25.618;2023-07-31T09:05:48;26.25;64.31
74416;SHT31;62850;42.428;25.618;2023-07-31T09:08:18;26.26;62.63
74416;SHT31;62850;42.428;25.618;2023-07-31T09:10:45;26.15;62.02
74416;SHT31;62850;42.428;25.618;2023-07-31T09:13:15;26.28;62.48
74416;SHT31;62850;42.428;25.618;2023-07-31T09:15:43;26.32;60.87
74416;SHT31;62850;42.428;25.618;2023-07-31T09:18:09;26.79;60.37
74416;SHT31;62850;42.428;25.618;2023-07-31T09:20:35;26.79;60.56
74416;SHT31;62850;42.428;25.618;2023-07-31T09:23:12;26.70;60.32
74416;SHT31;62850;42.428;25.618;2023-07-31T09:25:39;26.63;61.70
74416;SHT31;62850;42.428;25.618;2023-07-31T09:28:09;26.79;60.56
74416;SHT31;62850;42.428;25.618;2023-07-31T09:30:49;27.14;60.14
74416;SHT31;62850;42.428;25.618;2023-07-31T09:33:15;27.66;59.73
74416;SHT31;62850;42.428;25.618;2023-07-31T09:35:41;28.03;57.86
74416;SHT31;62850;42.428;25.618;2023-07-31T09:38:10;28.14;57.37
74416;SHT31;62850;42.428;25.618;2023-07-31T09:40:37;28.48;57.65
74416;SHT31;62850;42.428;25.618;2023-07-31T09:43:05;28.74;58.18
74416;SHT31;62850;42.428;25.618;2023-07-31T09:45:35;29.06;59.06
74416;SHT31;62850;42.428;25.618;2023-07-31T09:48:02;29.05;59.26
74416;SHT31;62850;42.428;25.618;2023-07-31T09:50:29;29.26;58.53
74416;SHT31;62850;42.428;25.618;2023-07-31T09:52:54;29.53;58.30
74416;SHT31;62850;42.428;25.618;2023-07-31T09:55:20;29.57;57.25
74416;SHT31;62850;42.428;25.618;2023-07-31T09:57:47;29.40;57.18
74416;SHT31;62850;42.428;25.618;2023-07-31T10:00:16;29.63;55.66
74416;SHT31;62850;42.428;25.618;2023-07-31T10:02:45;29.54;56.18
74416;SHT31;62850;42.428;25.618;2023-07-31T10:05:13;29.63;56.57
74416;SHT31;62850;42.428;25.618;2023-07-31T10:07:39;29.86;54.92
74416;SHT31;62850;42.428;25.618;2023-07-31T10:10:07;29.86;56.16
74416;SHT31;62850;42.428;25.618;2023-07-31T10:12:36;29.75;55.62
74416;SHT31;62850;42.428;25.618;2023-07-31T10:15:03;29.47;56.17
74416;SHT31;62850;42.428;25.618;2023-07-31T10:17:30;29.27;55.14
74416;SHT31;62850;42.428;25.618;2023-07-31T10:20:00;29.25;55.69
74416;SHT31;62850;42.428;25.618;2023-07-31T10:22:29;28.98;56.15
74416;SHT31;62850;42.428;25.618;2023-07-31T10:24:58;28.78;56.78
74416;SHT31;62850;42.428;25.618;2023-07-31T10:27:24;28.58;58.39
74416;SHT31;62850;42.428;25.618;2023-07-31T10:29:50;28.55;57.50
74416;SHT31;62850;42.428;25.618;2023-07-31T10:32:17;28.69;57.46
74416;SHT31;62850;42.428;25.618;2023-07-31T10:34:43;28.62;56.84
74416;SHT31;62850;42.428;25.618;2023-07-31T10:37:23;28.41;57.59
74416;SHT31;62850;42.428;25.618;2023-07-31T10:39:56;28.34;57.89
74416;SHT31;62850;42.428;25.618;2023-07-31T10:42:30;28.28;58.27
74416;SHT31;62850;42.428;25.618;2023-07-31T10:45:05;28.45;58.47
74416;SHT31;62850;42.428;25.618;2023-07-31T10:47:36;28.91;56.31
74416;SHT31;62850;42.428;25.618;2023-07-31T10:50:22;29.37;55.16
74416;SHT31;62850;42.428;25.618;2023-07-31T10:52:54;29.86;54.57
74416;SHT31;62850;42.428;25.618;2023-07-31T10:57:54;30.01;53.59
74416;SHT31;62850;42.428;25.618;2023-07-31T11:03:06;29.65;53.56
74416;SHT31;62850;42.428;25.618;2023-07-31T11:08:17;29.50;51.89
74416;SHT31;62850;42.428;25.618;2023-07-31T11:10:45;29.25;52.78
74416;SHT31;62850;42.428;25.618;2023-07-31T11:13:11;29.27;53.66
74416;SHT31;62850;42.428;25.618;2023-07-31T11:15:36;29.37;54.11
74416;SHT31;62850;42.428;25.618;2023-07-31T11:18:02;29.65;52.98
74416;SHT31;62850;42.428;25.618;2023-07-31T11:20:35;30.18;52.63
74416;SHT31;62850;42.428;25.618;2023-07-31T11:23:02;30.56;51.28
74416;SHT31;62850;42.428;25.618;2023-07-31T11:25:31;30.55;50.78
74416;SHT31;62850;42.428;25.618;2023-07-31T11:28:03;30.70;48.62
74416;SHT31;62850;42.428;25.618;2023-07-31T11:30:29;30.40;50.37
74416;SHT31;62850;42.428;25.618;2023-07-31T11:32:55;30.31;50.87
74416;SHT31;62850;42.428;25.618;2023-07-31T11:35:21;30.36;50.89
74416;SHT31;62850;42.428;25.618;2023-07-31T11:37:47;30.60;49.68
74416;SHT31;62850;42.428;25.618;2023-07-31T11:40:14;30.80;48.50
74416;SHT31;62850;42.428;25.618;2023-07-31T11:42:40;30.25;49.59
74416;SHT31;62850;42.428;25.618;2023-07-31T11:45:07;30.15;50.81
74416;SHT31;62850;42.428;25.618;2023-07-31T11:47:34;30.19;50.61
74416;SHT31;62850;42.428;25.618;2023-07-31T11:50:01;30.06;50.53
74416;SHT31;62850;42.428;25.618;2023-07-31T11:52:30;29.98;50.96
74416;SHT31;62850;42.428;25.618;2023-07-31T11:54:56;30.29;50.05
74416;SHT31;62850;42.428;25.618;2023-07-31T11:57:22;30.16;49.12
74416;SHT31;62850;42.428;25.618;2023-07-31T11:59:49;29.86;49.27
74416;SHT31;62850;42.428;25.618;2023-07-31T12:02:16;29.47;49.61
74416;SHT31;62850;42.428;25.618;2023-07-31T12:04:42;29.30;49.88
74416;SHT31;62850;42.428;25.618;2023-07-31T12:07:08;29.33;49.95
74416;SHT31;62850;42.428;25.618;2023-07-31T12:09:33;29.19;51.30
74416;SHT31;62850;42.428;25.618;2023-07-31T12:11:59;29.17;50.58
74416;SHT31;62850;42.428;25.618;2023-07-31T12:14:26;29.16;52.62
74416;SHT31;62850;42.428;25.618;2023-07-31T12:17:05;28.95;53.25
74416;SHT31;62850;42.428;25.618;2023-07-31T12:19:32;28.83;53.56
74416;SHT31;62850;42.428;25.618;2023-07-31T12:21:58;28.49;56.35
74416;SHT31;62850;42.428;25.618;2023-07-31T12:24:26;28.36;56.86
74416;SHT31;62850;42.428;25.618;2023-07-31T12:26:52;28.25;59.32
74416;SHT31;62850;42.428;25.618;2023-07-31T12:29:17;27.97;62.79
74416;SHT31;62850;42.428;25.618;2023-07-31T12:31:43;27.85;63.50
74416;SHT31;62850;42.428;25.618;2023-07-31T12:34:19;27.67;63.31
74416;SHT31;62850;42.428;25.618;2023-07-31T12:36:46;27.59;64.42
74416;SHT31;62850;42.428;25.618;2023-07-31T12:39:14;27.45;64.41
74416;SHT31;62850;42.428;25.618;2023-07-31T12:41:40;27.31;66.36
74416;SHT31;62850;42.428;25.618;2023-07-31T12:44:05;27.50;66.41
74416;SHT31;62850;42.428;25.618;2023-07-31T12:46:31;27.59;65.30
74416;SHT31;62850;42.428;25.618;2023-07-31T12:48:57;27.55;63.80
74416;SHT31;62850;42.428;25.618;2023-07-31T12:51:22;27.50;65.31
74416;SHT31;62850;42.428;25.618;2023-07-31T12:53:47;27.32;66.75
74416;SHT31;62850;42.428;25.618;2023-07-31T12:56:13;27.12;66.26
74416;SHT31;62850;42.428;25.618;2023-07-31T12:58:39;27.00;65.71
74416;SHT31;62850;42.428;25.618;2023-07-31T13:01:04;26.84;64.64
74416;SHT31;62850;42.428;25.618;2023-07-31T13:03:31;26.57;64.65
74416;SHT31;62850;42.428;25.618;2023-07-31T13:05:56;26.49;64.24
74416;SHT31;62850;42.428;25.618;2023-07-31T13:08:22;26.28;63.03
74416;SHT31;62850;42.428;25.618;2023-07-31T13:10:47;26.05;63.33
74416;SHT31;62850;42.428;25.618;2023-07-31T13:13:13;26.01;63.03
74416;SHT31;62850;42.428;25.618;2023-07-31T13:15:38;25.93;63.76
74416;SHT31;62850;42.428;25.618;2023-07-31T13:18:04;25.95;64.61
74416;SHT31;62850;42.428;25.618;2023-07-31T13:20:29;25.82;63.41
74416;SHT31;62850;42.428;25.618;2023-07-31T13:22:55;25.84;62.69
74416;SHT31;62850;42.428;25.618;2023-07-31T13:25:20;25.82;63.59
74416;SHT31;62850;42.428;25.618;2023-07-31T13:27:46;26.02;64.08
74416;SHT31;62850;42.428;25.618;2023-07-31T13:30:11;26.11;64.56
74416;SHT31;62850;42.428;25.618;2023-07-31T13:32:37;26.09;65.75
74416;SHT31;62850;42.428;25.618;2023-07-31T13:35:08;26.06;64.19
74416;SHT31;62850;42.428;25.618;2023-07-31T13:37:34;26.12;65.33
74416;SHT31;62850;42.428;25.618;2023-07-31T13:40:00;26.16;65.50
74416;SHT31;62850;42.428;25.618;2023-07-31T13:42:25;26.01;64.14
74416;SHT31;62850;42.428;25.618;2023-07-31T13:44:52;25.85;63.78
74416;SHT31;62850;42.428;25.618;2023-07-31T13:47:17;25.88;62.66
74416;SHT31;62850;42.428;25.618;2023-07-31T13:49:43;25.92;63.43
74416;SHT31;62850;42.428;25.618;2023-07-31T13:52:08;25.95;62.33
74416;SHT31;62850;42.428;25.618;2023-07-31T13:54:34;26.22;62.33
74416;SHT31;62850;42.428;25.618;2023-07-31T13:57:00;26.47;62.58
74416;SHT31;62850;42.428;25.618;2023-07-31T13:59:25;26.71;62.81
74416;SHT31;62850;42.428;25.618;2023-07-31T14:01:51;27.31;61.29
74416;SHT31;62850;42.428;25.618;2023-07-31T14:04:17;27.89;60.23
74416;SHT31;62850;42.428;25.618;2023-07-31T14:06:43;28.03;59.16
74416;SHT31;62850;42.428;25.618;2023-07-31T14:09:09;28.17;59.23
74416;SHT31;62850;42.428;25.618;2023-07-31T14:11:34;28.25;57.85
74416;SHT31;62850;42.428;25.618;2023-07-31T14:14:00;28.38;57.15
74416;SHT31;62850;42.428;25.618;2023-07-31T14:16:27;28.51;57.97
74416;SHT31;62850;42.428;25.618;2023-07-31T14:18:52;28.74;56.89
74416;SHT31;62850;42.428;25.618;2023-07-31T14:21:19;28.99;55.78
74416;SHT31;62850;42.428;25.618;2023-07-31T14:23:45;29.20;54.28
74416;SHT31;62850;42.428;25.618;2023-07-31T14:26:10;29.15;52.99
74416;SHT31;62850;42.428;25.618;2023-07-31T14:28:36;29.30;53.26
74416;SHT31;62850;42.428;25.618;2023-07-31T14:31:01;29.38;52.29
74416;SHT31;62850;42.428;25.618;2023-07-31T14:33:27;29.65;50.96
74416;SHT31;62850;42.428;25.618;2023-07-31T14:35:52;29.94;51.45
74416;SHT31;62850;42.428;25.618;2023-07-31T14:38:18;30.06;51.63
74416;SHT31;62850;42.428;25.618;2023-07-31T14:40:43;29.97;50.69
74416;SHT31;62850;42.428;25.618;2023-07-31T14:43:09;29.67;52.46
74416;SHT31;62850;42.428;25.618;2023-07-31T14:45:34;29.33;51.48
74416;SHT31;62850;42.428;25.618;2023-07-31T14:48:00;29.13;52.46
74416;SHT31;62850;42.428;25.618;2023-07-31T14:50:25;29.37;52.50
74416;SHT31;62850;42.428;25.618;2023-07-31T14:52:51;29.54;52.15
74416;SHT31;62850;42.428;25.618;2023-07-31T14:55:18;29.51;52.59
74416;SHT31;62850;42.428;25.618;2023-07-31T14:57:44;29.71;52.03
74416;SHT31;62850;42.428;25.618;2023-07-31T15:00:09;29.85;51.10
74416;SHT31;62850;42.428;25.618;2023-07-31T15:02:38;29.81;50.17
74416;SHT31;62850;42.428;25.618;2023-07-31T15:05:04;29.54;51.97
74416;SHT31;62850;42.428;25.618;2023-07-31T15:07:30;29.31;53.05
74416;SHT31;62850;42.428;25.618;2023-07-31T15:09:55;29.23;53.88
74416;SHT31;62850;42.428;25.618;2023-07-31T15:12:21;29.00;53.13
74416;SHT31;62850;42.428;25.618;2023-07-31T15:14:48;28.98;53.74
74416;SHT31;62850;42.428;25.618;2023-07-31T15:17:14;29.15;53.83
74416;SHT31;62850;42.428;25.618;2023-07-31T15:19:39;29.13;53.57
74416;SHT31;62850;42.428;25.618;2023-07-31T15:22:05;28.91;53.77
74416;SHT31;62850;42.428;25.618;2023-07-31T15:24:31;28.61;52.90